Time,TemperatureF,DewpointF,PressureIn,WindDirection,WindDirectionDegrees,WindSpeedMPH,WindSpeedGustMPH,Humidity,HourlyPrecipIn,Conditions,Clouds,dailyrainin,SoftwareType,DateUTC
2013-02-24 07:12:00,64.6,63.7,29.99,WSW,247,1.1,-999.0,97,-99.99,,,0.00,Acu-Link.com,2013-02-24 17:12:00,
2013-02-24 07:27:00,65.3,63.2,29.97,SSE,157,1.1,-999.0,93,-99.99,,,0.00,Acu-Link.com,2013-02-24 17:27:00,
2013-02-24 07:42:00,65.5,64.0,29.96,SSE,157,0.0,-999.0,95,-99.99,,,0.00,Acu-Link.com,2013-02-24 17:42:00,
2013-02-24 07:57:00,66.4,63.7,29.96,SW,225,1.7,-999.0,91,-99.99,,,0.00,Acu-Link.com,2013-02-24 17:57:00,
2013-02-24 08:13:00,66.6,64.5,29.99,NE,45,0.0,-999.0,93,-99.99,,,0.00,Acu-Link.com,2013-02-24 18:13:00,
2013-02-24 14:46:00,73.2,65.5,29.92,SSE,157,1.7,-999.0,77,-99.99,,,0.00,Acu-Link.com,2013-02-25 00:46:00,
2013-02-24 15:01:00,73.2,66.6,29.91,SE,135,0.0,-999.0,80,-99.99,,,0.00,Acu-Link.com,2013-02-25 01:01:00,
2013-02-24 15:16:00,73.2,64.8,29.88,SSE,157,2.2,-999.0,75,-99.99,,,0.00,Acu-Link.com,2013-02-25 01:16:00,
2013-02-24 15:32:00,72.5,66.0,29.88,WNW,292,1.1,-999.0,80,-99.99,,,0.02,Acu-Link.com,2013-02-25 01:32:00,
2013-02-24 15:47:00,72.3,66.5,29.89,ENE,67,1.1,-999.0,82,-99.99,,,0.02,Acu-Link.com,2013-02-25 01:47:00,
2013-02-24 16:02:00,71.4,67.0,29.89,South,180,1.7,-999.0,86,-99.99,,,0.02,Acu-Link.com,2013-02-25 02:02:00,
2013-02-24 16:17:00,71.4,66.6,29.89,SSE,157,0.0,-999.0,85,-99.99,,,0.02,Acu-Link.com,2013-02-25 02:17:00,
2013-02-24 16:32:00,71.6,65.1,29.90,South,180,0.0,-999.0,80,-99.99,,,0.02,Acu-Link.com,2013-02-25 02:32:00,
2013-02-24 16:47:00,71.8,64.6,29.89,SW,225,0.0,-999.0,78,-99.99,,,0.02,Acu-Link.com,2013-02-25 02:47:00,
2013-02-24 17:03:00,71.6,64.7,29.88,NNE,22,1.1,-999.0,79,-99.99,,,0.02,Acu-Link.com,2013-02-25 03:03:00,
2013-02-24 17:18:00,71.1,66.4,29.89,SE,135,1.7,-999.0,85,-99.99,,,0.02,Acu-Link.com,2013-02-25 03:18:00,
2013-02-24 17:33:00,70.7,64.9,29.89,SSE,157,0.0,-999.0,82,-99.99,,,0.02,Acu-Link.com,2013-02-25 03:33:00,
2013-02-24 17:49:00,70.7,63.9,29.91,North,0,1.1,-999.0,79,-99.99,,,0.02,Acu-Link.com,2013-02-25 03:49:00,
2013-02-24 18:04:00,71.1,63.9,29.91,WSW,247,1.1,-999.0,78,-99.99,,,0.02,Acu-Link.com,2013-02-25 04:04:00,
2013-02-24 18:19:00,70.9,63.7,29.91,SW,225,2.7,-999.0,78,-99.99,,,0.02,Acu-Link.com,2013-02-25 04:19:00,
2013-02-24 18:34:00,70.3,65.2,29.91,SW,225,0.0,-999.0,84,-99.99,,,0.02,Acu-Link.com,2013-02-25 04:34:00,
2013-02-24 18:50:00,69.8,64.7,29.92,SE,135,0.0,-999.0,84,-99.99,,,0.02,Acu-Link.com,2013-02-25 04:50:00,
2013-02-24 19:05:00,69.6,63.9,29.92,NNE,22,0.0,-999.0,82,-99.99,,,0.02,Acu-Link.com,2013-02-25 05:05:00,
2013-02-24 19:20:00,69.4,63.7,29.95,SW,225,1.1,-999.0,82,-99.99,,,0.02,Acu-Link.com,2013-02-25 05:20:00,
2013-02-24 19:35:00,69.1,63.4,29.95,NW,315,1.7,-999.0,82,-99.99,,,0.02,Acu-Link.com,2013-02-25 05:35:00,
2013-02-24 19:51:00,69.1,63.0,29.96,NNW,337,2.2,-999.0,81,-99.99,,,0.02,Acu-Link.com,2013-02-25 05:51:00,
2013-02-24 20:06:00,69.1,63.7,29.95,SSE,157,0.0,-999.0,83,-99.99,,,0.02,Acu-Link.com,2013-02-25 06:06:00,
2013-02-24 20:21:00,68.5,62.8,29.96,WSW,247,1.7,-999.0,82,-99.99,,,0.02,Acu-Link.com,2013-02-25 06:21:00,
2013-02-24 20:37:00,68.9,62.1,29.97,ESE,112,2.7,-999.0,79,-99.99,,,0.02,Acu-Link.com,2013-02-25 06:37:00,
2013-02-24 20:52:00,68.9,61.7,29.96,West,270,0.0,-999.0,78,-99.99,,,0.02,Acu-Link.com,2013-02-25 06:52:00,
2013-02-24 21:07:00,68.7,62.3,29.96,NNW,337,1.7,-999.0,80,-99.99,,,0.02,Acu-Link.com,2013-02-25 07:07:00,
2013-02-24 21:22:00,68.7,62.3,29.96,West,270,3.7,-999.0,80,-99.99,,,0.02,Acu-Link.com,2013-02-25 07:22:00,
2013-02-24 21:38:00,68.9,62.8,29.99,ESE,112,2.7,-999.0,81,-99.99,,,0.02,Acu-Link.com,2013-02-25 07:38:00,
2013-02-24 21:53:00,69.1,61.9,29.97,NE,45,1.7,-999.0,78,-99.99,,,0.02,Acu-Link.com,2013-02-25 07:53:00,
2013-02-24 22:08:00,68.7,61.2,29.98,NNW,337,1.1,-999.0,77,-99.99,,,0.02,Acu-Link.com,2013-02-25 08:08:00,
2013-02-24 22:23:00,68.2,61.1,29.99,NNE,22,2.2,-999.0,78,-99.99,,,0.02,Acu-Link.com,2013-02-25 08:23:00,
2013-02-24 22:38:00,68.5,61.4,29.99,South,180,1.7,-999.0,78,-99.99,,,0.02,Acu-Link.com,2013-02-25 08:38:00,
2013-02-24 22:54:00,68.2,61.4,29.97,SSE,157,0.0,-999.0,79,-99.99,,,0.02,Acu-Link.com,2013-02-25 08:54:00,
2013-02-24 23:17:00,68.2,62.8,29.98,East,90,1.1,-999.0,83,-99.99,,,0.02,Acu-Link.com,2013-02-25 09:17:00,
2013-02-24 23:33:00,68.0,63.3,29.99,ESE,112,0.0,-999.0,85,-99.99,,,0.02,Acu-Link.com,2013-02-25 09:33:00,
2013-02-24 23:48:00,67.5,63.2,30.00,SSE,157,0.0,-999.0,86,-99.99,,,0.02,Acu-Link.com,2013-02-25 09:48:00,